sensor_id;sensor_type;location;lat;lon;timestamp;P1;durP1;ratioP1;P2;durP2;ratioP2
37955;SDS011;23776;51.592;7.180;2023-02-10T00:00:31;70.53;;;28.98;;
37955;SDS011;23776;51.592;7.180;2023-02-10T00:02:57;69.93;;;29.15;;
37955;SDS011;23776;51.592;7.180;2023-02-10T00:05:23;70.10;;;29.05;;
37955;SDS011;23776;51.592;7.180;2023-02-10T00:07:48;71.43;;;28.27;;
37955;SDS011;23776;51.592;7.180;2023-02-10T00:10:14;74.15;;;29.42;;
37955;SDS011;23776;51.592;7.180;2023-02-10T00:12:40;73.10;;;29.35;;
37955;SDS011;23776;51.592;7.180;2023-02-10T00:15:05;76.45;;;30.02;;
37955;SDS011;23776;51.592;7.180;2023-02-10T00:17:31;74.05;;;29.27;;
37955;SDS011;23776;51.592;7.180;2023-02-10T00:19:57;88.25;;;31.02;;
37955;SDS011;23776;51.592;7.180;2023-02-10T00:22:24;73.15;;;29.75;;
37955;SDS011;23776;51.592;7.180;2023-02-10T00:24:49;79.00;;;29.08;;
37955;SDS011;23776;51.592;7.180;2023-02-10T00:27:15;71.90;;;30.30;;
37955;SDS011;23776;51.592;7.180;2023-02-10T00:29:45;76.45;;;31.27;;
37955;SDS011;23776;51.592;7.180;2023-02-10T00:32:14;78.38;;;30.60;;
37955;SDS011;23776;51.592;7.180;2023-02-10T00:34:41;70.85;;;30.48;;
37955;SDS011;23776;51.592;7.180;2023-02-10T00:37:06;82.63;;;31.25;;
37955;SDS011;23776;51.592;7.180;2023-02-10T00:39:32;80.05;;;34.13;;
37955;SDS011;23776;51.592;7.180;2023-02-10T00:41:57;83.20;;;32.63;;
37955;SDS011;23776;51.592;7.180;2023-02-10T00:44:23;84.55;;;31.65;;
37955;SDS011;23776;51.592;7.180;2023-02-10T00:46:49;78.82;;;32.45;;
37955;SDS011;23776;51.592;7.180;2023-02-10T00:49:14;79.45;;;32.08;;
37955;SDS011;23776;51.592;7.180;2023-02-10T00:51:40;70.88;;;29.02;;
37955;SDS011;23776;51.592;7.180;2023-02-10T00:54:06;70.93;;;29.20;;
37955;SDS011;23776;51.592;7.180;2023-02-10T00:56:32;80.65;;;31.17;;
37955;SDS011;23776;51.592;7.180;2023-02-10T00:58:57;81.47;;;31.60;;
37955;SDS011;23776;51.592;7.180;2023-02-10T01:01:23;76.78;;;30.73;;
37955;SDS011;23776;51.592;7.180;2023-02-10T01:03:49;85.00;;;31.67;;
37955;SDS011;23776;51.592;7.180;2023-02-10T01:06:14;79.68;;;32.75;;
37955;SDS011;23776;51.592;7.180;2023-02-10T01:08:40;82.97;;;32.75;;
37955;SDS011;23776;51.592;7.180;2023-02-10T01:11:08;76.82;;;31.20;;
37955;SDS011;23776;51.592;7.180;2023-02-10T01:13:36;72.25;;;31.52;;
37955;SDS011;23776;51.592;7.180;2023-02-10T01:16:12;85.88;;;31.52;;
37955;SDS011;23776;51.592;7.180;2023-02-10T01:18:40;78.45;;;33.03;;
37955;SDS011;23776;51.592;7.180;2023-02-10T01:21:07;77.55;;;32.33;;
37955;SDS011;23776;51.592;7.180;2023-02-10T01:23:35;86.85;;;34.08;;
37955;SDS011;23776;51.592;7.180;2023-02-10T01:26:01;79.85;;;33.33;;
37955;SDS011;23776;51.592;7.180;2023-02-10T01:28:27;81.30;;;31.73;;
37955;SDS011;23776;51.592;7.180;2023-02-10T01:30:53;74.55;;;31.98;;
37955;SDS011;23776;51.592;7.180;2023-02-10T01:33:18;80.07;;;32.13;;
37955;SDS011;23776;51.592;7.180;2023-02-10T01:35:44;87.10;;;33.00;;
37955;SDS011;23776;51.592;7.180;2023-02-10T01:38:10;81.13;;;32.85;;
37955;SDS011;23776;51.592;7.180;2023-02-10T01:40:35;76.93;;;32.92;;
37955;SDS011;23776;51.592;7.180;2023-02-10T01:43:01;76.95;;;32.10;;
37955;SDS011;23776;51.592;7.180;2023-02-10T01:45:33;79.25;;;33.25;;
37955;SDS011;23776;51.592;7.180;2023-02-10T01:48:02;78.75;;;31.70;;
37955;SDS011;23776;51.592;7.180;2023-02-10T01:50:38;74.75;;;30.75;;
37955;SDS011;23776;51.592;7.180;2023-02-10T01:53:07;83.05;;;32.42;;
37955;SDS011;23776;51.592;7.180;2023-02-10T01:55:34;75.75;;;31.77;;
37955;SDS011;23776;51.592;7.180;2023-02-10T01:58:02;78.95;;;32.22;;
37955;SDS011;23776;51.592;7.180;2023-02-10T02:00:31;76.05;;;33.28;;
37955;SDS011;23776;51.592;7.180;2023-02-10T02:02:57;75.78;;;31.90;;
37955;SDS011;23776;51.592;7.180;2023-02-10T02:07:53;76.28;;;32.45;;
37955;SDS011;23776;51.592;7.180;2023-02-10T02:10:19;71.30;;;30.73;;
37955;SDS011;23776;51.592;7.180;2023-02-10T02:13:01;75.18;;;31.23;;
37955;SDS011;23776;51.592;7.180;2023-02-10T02:25:59;81.00;;;32.53;;
37955;SDS011;23776;51.592;7.180;2023-02-10T02:34:06;78.93;;;32.67;;
37955;SDS011;23776;51.592;7.180;2023-02-10T02:36:40;89.97;;;33.65;;
37955;SDS011;23776;51.592;7.180;2023-02-10T02:39:12;88.15;;;33.38;;
37955;SDS011;23776;51.592;7.180;2023-02-10T02:41:38;84.18;;;34.13;;
37955;SDS011;23776;51.592;7.180;2023-02-10T02:44:04;84.10;;;33.35;;
37955;SDS011;23776;51.592;7.180;2023-02-10T02:46:38;93.78;;;34.58;;
37955;SDS011;23776;51.592;7.180;2023-02-10T02:49:26;82.07;;;33.92;;
37955;SDS011;23776;51.592;7.180;2023-02-10T02:52:11;85.00;;;35.25;;
37955;SDS011;23776;51.592;7.180;2023-02-10T03:00:09;80.57;;;33.08;;
37955;SDS011;23776;51.592;7.180;2023-02-10T03:02:56;95.57;;;36.65;;
37955;SDS011;23776;51.592;7.180;2023-02-10T03:05:23;84.75;;;34.25;;
37955;SDS011;23776;51.592;7.180;2023-02-10T03:07:54;92.85;;;34.60;;
37955;SDS011;23776;51.592;7.180;2023-02-10T03:10:20;82.05;;;32.30;;
37955;SDS011;23776;51.592;7.180;2023-02-10T03:12:46;84.82;;;33.92;;
37955;SDS011;23776;51.592;7.180;2023-02-10T03:15:12;88.78;;;33.72;;
37955;SDS011;23776;51.592;7.180;2023-02-10T03:17:38;77.10;;;34.38;;
37955;SDS011;23776;51.592;7.180;2023-02-10T03:20:05;93.93;;;35.45;;
37955;SDS011;23776;51.592;7.180;2023-02-10T03:22:31;86.50;;;35.83;;
37955;SDS011;23776;51.592;7.180;2023-02-10T03:24:57;91.38;;;35.40;;
37955;SDS011;23776;51.592;7.180;2023-02-10T03:27:22;98.13;;;37.97;;
37955;SDS011;23776;51.592;7.180;2023-02-10T03:29:48;97.57;;;39.90;;
37955;SDS011;23776;51.592;7.180;2023-02-10T03:32:14;89.60;;;36.63;;
37955;SDS011;23776;51.592;7.180;2023-02-10T03:34:41;102.63;;;37.88;;
37955;SDS011;23776;51.592;7.180;2023-02-10T03:37:07;92.28;;;38.40;;
37955;SDS011;23776;51.592;7.180;2023-02-10T03:39:32;98.38;;;39.97;;
37955;SDS011;23776;51.592;7.180;2023-02-10T03:41:58;104.15;;;38.75;;
37955;SDS011;23776;51.592;7.180;2023-02-10T03:44:24;101.55;;;40.53;;
37955;SDS011;23776;51.592;7.180;2023-02-10T03:46:50;99.93;;;40.28;;
37955;SDS011;23776;51.592;7.180;2023-02-10T03:49:16;106.97;;;39.85;;
37955;SDS011;23776;51.592;7.180;2023-02-10T03:51:41;105.90;;;40.70;;
37955;SDS011;23776;51.592;7.180;2023-02-10T03:54:07;110.97;;;40.97;;
37955;SDS011;23776;51.592;7.180;2023-02-10T03:56:32;112.55;;;40.30;;
37955;SDS011;23776;51.592;7.180;2023-02-10T03:59:01;113.05;;;41.40;;
37955;SDS011;23776;51.592;7.180;2023-02-10T04:01:27;104.07;;;40.10;;
37955;SDS011;23776;51.592;7.180;2023-02-10T04:03:53;98.28;;;40.30;;
37955;SDS011;23776;51.592;7.180;2023-02-10T04:06:19;117.47;;;43.00;;
37955;SDS011;23776;51.592;7.180;2023-02-10T04:08:45;111.57;;;41.70;;
37955;SDS011;23776;51.592;7.180;2023-02-10T04:11:11;107.65;;;41.90;;
37955;SDS011;23776;51.592;7.180;2023-02-10T04:13:38;115.22;;;43.22;;
37955;SDS011;23776;51.592;7.180;2023-02-10T04:16:05;115.07;;;42.88;;
37955;SDS011;23776;51.592;7.180;2023-02-10T04:18:32;106.45;;;42.90;;
37955;SDS011;23776;51.592;7.180;2023-02-10T04:20:59;99.95;;;39.60;;
37955;SDS011;23776;51.592;7.180;2023-02-10T04:23:26;110.80;;;42.63;;
37955;SDS011;23776;51.592;7.180;2023-02-10T04:25:52;117.72;;;42.38;;
37955;SDS011;23776;51.592;7.180;2023-02-10T04:28:18;111.07;;;43.72;;
37955;SDS011;23776;51.592;7.180;2023-02-10T04:30:44;108.40;;;42.80;;
37955;SDS011;23776;51.592;7.180;2023-02-10T04:33:10;102.38;;;40.53;;
37955;SDS011;23776;51.592;7.180;2023-02-10T04:35:35;117.68;;;44.72;;
37955;SDS011;23776;51.592;7.180;2023-02-10T04:38:01;111.18;;;43.97;;
37955;SDS011;23776;51.592;7.180;2023-02-10T04:40:28;108.40;;;41.53;;
37955;SDS011;23776;51.592;7.180;2023-02-10T04:42:54;108.00;;;42.88;;
37955;SDS011;23776;51.592;7.180;2023-02-10T04:45:20;106.78;;;42.67;;
37955;SDS011;23776;51.592;7.180;2023-02-10T04:47:45;112.65;;;42.15;;
37955;SDS011;23776;51.592;7.180;2023-02-10T04:50:11;113.90;;;43.08;;
37955;SDS011;23776;51.592;7.180;2023-02-10T04:52:38;116.38;;;42.53;;
37955;SDS011;23776;51.592;7.180;2023-02-10T04:55:03;113.90;;;44.78;;
37955;SDS011;23776;51.592;7.180;2023-02-10T04:57:29;110.53;;;43.75;;
37955;SDS011;23776;51.592;7.180;2023-02-10T04:59:55;116.32;;;44.58;;
37955;SDS011;23776;51.592;7.180;2023-02-10T05:02:20;114.38;;;45.88;;
37955;SDS011;23776;51.592;7.180;2023-02-10T05:04:46;116.10;;;46.10;;
37955;SDS011;23776;51.592;7.180;2023-02-10T05:07:12;113.90;;;45.22;;
37955;SDS011;23776;51.592;7.180;2023-02-10T05:09:38;117.50;;;45.35;;
37955;SDS011;23776;51.592;7.180;2023-02-10T05:12:03;107.10;;;42.60;;
37955;SDS011;23776;51.592;7.180;2023-02-10T05:14:29;110.75;;;43.97;;
37955;SDS011;23776;51.592;7.180;2023-02-10T05:16:55;116.15;;;43.83;;
37955;SDS011;23776;51.592;7.180;2023-02-10T05:19:20;114.57;;;42.08;;
37955;SDS011;23776;51.592;7.180;2023-02-10T05:21:46;124.00;;;43.33;;
37955;SDS011;23776;51.592;7.180;2023-02-10T05:24:12;106.07;;;40.35;;
37955;SDS011;23776;51.592;7.180;2023-02-10T05:26:37;102.88;;;40.90;;
37955;SDS011;23776;51.592;7.180;2023-02-10T05:29:03;114.43;;;42.05;;
37955;SDS011;23776;51.592;7.180;2023-02-10T05:31:29;105.93;;;40.38;;
37955;SDS011;23776;51.592;7.180;2023-02-10T05:33:55;102.32;;;41.13;;
37955;SDS011;23776;51.592;7.180;2023-02-10T05:36:20;103.28;;;39.83;;
37955;SDS011;23776;51.592;7.180;2023-02-10T05:38:46;105.70;;;40.97;;
37955;SDS011;23776;51.592;7.180;2023-02-10T05:41:31;106.82;;;40.38;;
37955;SDS011;23776;51.592;7.180;2023-02-10T05:43:56;113.28;;;41.28;;
37955;SDS011;23776;51.592;7.180;2023-02-10T05:46:22;108.90;;;40.50;;
37955;SDS011;23776;51.592;7.180;2023-02-10T05:48:48;103.95;;;40.92;;
37955;SDS011;23776;51.592;7.180;2023-02-10T05:51:14;121.38;;;43.35;;
37955;SDS011;23776;51.592;7.180;2023-02-10T05:53:40;105.22;;;40.50;;
37955;SDS011;23776;51.592;7.180;2023-02-10T05:56:06;105.90;;;41.72;;
37955;SDS011;23776;51.592;7.180;2023-02-10T05:58:31;113.82;;;43.53;;
37955;SDS011;23776;51.592;7.180;2023-02-10T06:01:00;116.43;;;42.38;;
37955;SDS011;23776;51.592;7.180;2023-02-10T06:03:30;113.13;;;42.20;;
37955;SDS011;23776;51.592;7.180;2023-02-10T06:05:55;125.03;;;43.88;;
37955;SDS011;23776;51.592;7.180;2023-02-10T06:08:21;120.82;;;42.90;;
37955;SDS011;23776;51.592;7.180;2023-02-10T06:10:47;121.10;;;43.10;;
37955;SDS011;23776;51.592;7.180;2023-02-10T06:13:13;115.68;;;44.45;;
37955;SDS011;23776;51.592;7.180;2023-02-10T06:15:39;110.88;;;42.72;;
37955;SDS011;23776;51.592;7.180;2023-02-10T06:18:04;105.35;;;40.95;;
37955;SDS011;23776;51.592;7.180;2023-02-10T06:20:30;107.35;;;38.65;;
37955;SDS011;23776;51.592;7.180;2023-02-10T06:22:56;102.05;;;39.30;;
37955;SDS011;23776;51.592;7.180;2023-02-10T06:25:21;118.15;;;42.83;;
37955;SDS011;23776;51.592;7.180;2023-02-10T06:27:47;115.25;;;40.33;;
37955;SDS011;23776;51.592;7.180;2023-02-10T06:30:12;112.60;;;42.53;;
37955;SDS011;23776;51.592;7.180;2023-02-10T06:32:38;109.35;;;41.85;;
37955;SDS011;23776;51.592;7.180;2023-02-10T06:35:04;102.93;;;40.05;;
37955;SDS011;23776;51.592;7.180;2023-02-10T06:37:29;102.75;;;40.95;;
37955;SDS011;23776;51.592;7.180;2023-02-10T06:39:55;105.40;;;39.40;;
37955;SDS011;23776;51.592;7.180;2023-02-10T06:42:21;122.03;;;44.75;;
37955;SDS011;23776;51.592;7.180;2023-02-10T06:44:46;106.28;;;41.55;;
37955;SDS011;23776;51.592;7.180;2023-02-10T06:47:12;113.05;;;41.85;;
37955;SDS011;23776;51.592;7.180;2023-02-10T06:49:38;115.40;;;43.15;;
37955;SDS011;23776;51.592;7.180;2023-02-10T06:52:03;111.03;;;42.53;;
37955;SDS011;23776;51.592;7.180;2023-02-10T06:54:29;108.97;;;40.88;;
37955;SDS011;23776;51.592;7.180;2023-02-10T06:56:54;107.10;;;40.42;;
37955;SDS011;23776;51.592;7.180;2023-02-10T06:59:20;112.90;;;43.78;;
37955;SDS011;23776;51.592;7.180;2023-02-10T07:01:46;118.97;;;43.17;;
37955;SDS011;23776;51.592;7.180;2023-02-10T07:04:12;113.45;;;43.63;;
37955;SDS011;23776;51.592;7.180;2023-02-10T07:06:38;112.30;;;40.42;;
37955;SDS011;23776;51.592;7.180;2023-02-10T07:09:04;110.78;;;41.10;;
37955;SDS011;23776;51.592;7.180;2023-02-10T07:11:30;110.60;;;42.53;;
37955;SDS011;23776;51.592;7.180;2023-02-10T07:13:57;111.03;;;43.20;;
37955;SDS011;23776;51.592;7.180;2023-02-10T07:16:23;118.30;;;43.78;;
37955;SDS011;23776;51.592;7.180;2023-02-10T07:18:48;112.43;;;41.15;;
37955;SDS011;23776;51.592;7.180;2023-02-10T07:21:14;117.82;;;45.65;;
37955;SDS011;23776;51.592;7.180;2023-02-10T07:23:40;116.15;;;43.33;;
37955;SDS011;23776;51.592;7.180;2023-02-10T07:26:05;110.90;;;43.13;;
37955;SDS011;23776;51.592;7.180;2023-02-10T07:28:33;120.00;;;45.60;;
37955;SDS011;23776;51.592;7.180;2023-02-10T07:30:58;112.40;;;42.33;;
37955;SDS011;23776;51.592;7.180;2023-02-10T07:33:24;119.57;;;42.53;;
37955;SDS011;23776;51.592;7.180;2023-02-10T07:35:50;112.38;;;42.88;;
37955;SDS011;23776;51.592;7.180;2023-02-10T07:38:15;110.63;;;40.55;;
37955;SDS011;23776;51.592;7.180;2023-02-10T07:40:41;112.88;;;42.40;;
37955;SDS011;23776;51.592;7.180;2023-02-10T07:43:06;119.93;;;43.80;;
37955;SDS011;23776;51.592;7.180;2023-02-10T07:45:32;115.47;;;41.67;;
37955;SDS011;23776;51.592;7.180;2023-02-10T07:47:58;114.35;;;42.45;;
37955;SDS011;23776;51.592;7.180;2023-02-10T07:50:24;100.40;;;39.60;;
37955;SDS011;23776;51.592;7.180;2023-02-10T07:52:50;109.07;;;41.72;;
37955;SDS011;23776;51.592;7.180;2023-02-10T07:55:16;119.90;;;43.47;;
37955;SDS011;23776;51.592;7.180;2023-02-10T07:57:42;115.68;;;42.17;;
37955;SDS011;23776;51.592;7.180;2023-02-10T08:00:08;115.03;;;41.90;;
37955;SDS011;23776;51.592;7.180;2023-02-10T08:02:34;108.82;;;43.60;;
37955;SDS011;23776;51.592;7.180;2023-02-10T08:05:00;101.72;;;41.38;;
37955;SDS011;23776;51.592;7.180;2023-02-10T08:07:25;119.50;;;44.03;;
37955;SDS011;23776;51.592;7.180;2023-02-10T08:09:51;113.60;;;41.13;;
37955;SDS011;23776;51.592;7.180;2023-02-10T08:12:17;120.18;;;44.83;;
37955;SDS011;23776;51.592;7.180;2023-02-10T08:14:42;116.97;;;42.97;;
37955;SDS011;23776;51.592;7.180;2023-02-10T08:17:08;117.15;;;42.90;;
37955;SDS011;23776;51.592;7.180;2023-02-10T08:19:34;109.47;;;41.88;;
37955;SDS011;23776;51.592;7.180;2023-02-10T08:22:01;114.70;;;41.95;;
37955;SDS011;23776;51.592;7.180;2023-02-10T08:24:29;115.80;;;42.38;;
37955;SDS011;23776;51.592;7.180;2023-02-10T08:26:55;119.78;;;42.63;;
37955;SDS011;23776;51.592;7.180;2023-02-10T08:29:21;113.50;;;41.92;;
37955;SDS011;23776;51.592;7.180;2023-02-10T08:31:50;113.72;;;43.95;;
37955;SDS011;23776;51.592;7.180;2023-02-10T08:34:17;118.05;;;42.67;;
37955;SDS011;23776;51.592;7.180;2023-02-10T08:36:45;125.82;;;47.33;;
37955;SDS011;23776;51.592;7.180;2023-02-10T08:39:11;107.57;;;41.50;;
37955;SDS011;23776;51.592;7.180;2023-02-10T08:41:38;103.07;;;41.00;;
37955;SDS011;23776;51.592;7.180;2023-02-10T08:44:04;124.68;;;46.08;;
37955;SDS011;23776;51.592;7.180;2023-02-10T08:46:30;118.13;;;45.00;;
37955;SDS011;23776;51.592;7.180;2023-02-10T08:48:56;117.18;;;42.88;;
37955;SDS011;23776;51.592;7.180;2023-02-10T08:51:25;108.50;;;42.00;;
37955;SDS011;23776;51.592;7.180;2023-02-10T08:53:51;117.30;;;44.42;;
37955;SDS011;23776;51.592;7.180;2023-02-10T08:56:17;115.20;;;43.47;;
37955;SDS011;23776;51.592;7.180;2023-02-10T08:58:44;117.15;;;44.22;;
37955;SDS011;23776;51.592;7.180;2023-02-10T09:01:12;115.47;;;44.17;;
37955;SDS011;23776;51.592;7.180;2023-02-10T09:03:50;105.20;;;41.03;;
37955;SDS011;23776;51.592;7.180;2023-02-10T09:06:19;110.22;;;41.63;;
37955;SDS011;23776;51.592;7.180;2023-02-10T09:08:57;104.05;;;40.25;;
37955;SDS011;23776;51.592;7.180;2023-02-10T09:11:25;104.88;;;40.83;;
37955;SDS011;23776;51.592;7.180;2023-02-10T09:13:51;109.10;;;40.22;;
37955;SDS011;23776;51.592;7.180;2023-02-10T09:16:17;100.90;;;40.47;;
37955;SDS011;23776;51.592;7.180;2023-02-10T09:18:43;99.65;;;39.30;;
37955;SDS011;23776;51.592;7.180;2023-02-10T09:21:09;108.05;;;40.78;;
37955;SDS011;23776;51.592;7.180;2023-02-10T09:23:35;97.97;;;39.97;;
37955;SDS011;23776;51.592;7.180;2023-02-10T09:26:01;101.13;;;40.47;;
37955;SDS011;23776;51.592;7.180;2023-02-10T09:28:28;100.97;;;39.83;;
37955;SDS011;23776;51.592;7.180;2023-02-10T09:30:54;104.43;;;40.80;;
37955;SDS011;23776;51.592;7.180;2023-02-10T09:33:19;107.13;;;41.78;;
37955;SDS011;23776;51.592;7.180;2023-02-10T09:35:45;96.95;;;40.22;;
37955;SDS011;23776;51.592;7.180;2023-02-10T09:38:11;99.35;;;39.13;;
37955;SDS011;23776;51.592;7.180;2023-02-10T09:43:42;100.45;;;40.97;;
37955;SDS011;23776;51.592;7.180;2023-02-10T09:46:51;99.45;;;39.38;;
37955;SDS011;23776;51.592;7.180;2023-02-10T09:52:29;89.43;;;39.30;;
37955;SDS011;23776;51.592;7.180;2023-02-10T09:55:08;105.57;;;39.22;;
37955;SDS011;23776;51.592;7.180;2023-02-10T09:57:41;102.40;;;38.35;;
37955;SDS011;23776;51.592;7.180;2023-02-10T10:02:57;103.35;;;39.95;;
37955;SDS011;23776;51.592;7.180;2023-02-10T10:07:54;103.22;;;39.75;;
37955;SDS011;23776;51.592;7.180;2023-02-10T10:10:30;87.35;;;38.42;;
37955;SDS011;23776;51.592;7.180;2023-02-10T10:13:00;101.55;;;40.88;;
37955;SDS011;23776;51.592;7.180;2023-02-10T10:15:31;93.82;;;38.92;;
37955;SDS011;23776;51.592;7.180;2023-02-10T10:20:51;96.68;;;38.60;;
37955;SDS011;23776;51.592;7.180;2023-02-10T10:26:15;92.50;;;37.15;;
37955;SDS011;23776;51.592;7.180;2023-02-10T10:34:57;102.35;;;38.80;;
37955;SDS011;23776;51.592;7.180;2023-02-10T10:37:25;103.30;;;39.85;;
37955;SDS011;23776;51.592;7.180;2023-02-10T10:39:58;105.75;;;39.70;;
37955;SDS011;23776;51.592;7.180;2023-02-10T10:42:37;99.82;;;39.35;;
37955;SDS011;23776;51.592;7.180;2023-02-10T10:45:19;104.05;;;39.13;;
37955;SDS011;23776;51.592;7.180;2023-02-10T10:50:49;95.25;;;37.45;;
37955;SDS011;23776;51.592;7.180;2023-02-10T10:53:15;86.03;;;36.38;;
37955;SDS011;23776;51.592;7.180;2023-02-10T10:55:48;97.97;;;39.30;;
37955;SDS011;23776;51.592;7.180;2023-02-10T11:01:12;96.80;;;39.22;;
37955;SDS011;23776;51.592;7.180;2023-02-10T11:03:38;97.53;;;38.05;;
37955;SDS011;23776;51.592;7.180;2023-02-10T11:06:08;100.00;;;38.97;;
37955;SDS011;23776;51.592;7.180;2023-02-10T11:11:17;103.82;;;41.35;;
37955;SDS011;23776;51.592;7.180;2023-02-10T11:13:50;108.18;;;40.13;;
37955;SDS011;23776;51.592;7.180;2023-02-10T11:16:19;103.22;;;41.35;;
37955;SDS011;23776;51.592;7.180;2023-02-10T11:21:32;102.15;;;39.67;;
37955;SDS011;23776;51.592;7.180;2023-02-10T11:24:03;95.25;;;37.72;;
37955;SDS011;23776;51.592;7.180;2023-02-10T11:26:40;92.95;;;39.33;;
37955;SDS011;23776;51.592;7.180;2023-02-10T11:29:09;93.90;;;39.25;;
37955;SDS011;23776;51.592;7.180;2023-02-10T11:31:36;94.80;;;37.90;;
37955;SDS011;23776;51.592;7.180;2023-02-10T11:34:17;84.38;;;35.65;;
37955;SDS011;23776;51.592;7.180;2023-02-10T11:36:53;88.05;;;38.45;;
37955;SDS011;23776;51.592;7.180;2023-02-10T11:39:23;91.28;;;36.33;;
37955;SDS011;23776;51.592;7.180;2023-02-10T11:41:55;83.75;;;36.25;;
37955;SDS011;23776;51.592;7.180;2023-02-10T11:44:28;85.78;;;37.47;;
37955;SDS011;23776;51.592;7.180;2023-02-10T11:47:05;86.53;;;37.83;;
37955;SDS011;23776;51.592;7.180;2023-02-10T11:49:41;88.00;;;37.40;;
37955;SDS011;23776;51.592;7.180;2023-02-10T11:52:08;90.85;;;37.97;;
37955;SDS011;23776;51.592;7.180;2023-02-10T11:54:34;89.60;;;38.55;;
37955;SDS011;23776;51.592;7.180;2023-02-10T12:08:29;80.68;;;35.78;;
37955;SDS011;23776;51.592;7.180;2023-02-10T12:11:13;85.93;;;36.42;;
37955;SDS011;23776;51.592;7.180;2023-02-10T12:16:51;86.28;;;35.35;;
37955;SDS011;23776;51.592;7.180;2023-02-10T12:33:00;69.07;;;28.42;;
37955;SDS011;23776;51.592;7.180;2023-02-10T12:43:58;61.17;;;26.65;;
37955;SDS011;23776;51.592;7.180;2023-02-10T13:05:21;59.58;;;23.42;;
37955;SDS011;23776;51.592;7.180;2023-02-10T13:10:20;56.10;;;22.50;;
37955;SDS011;23776;51.592;7.180;2023-02-10T13:12:51;47.78;;;21.45;;
37955;SDS011;23776;51.592;7.180;2023-02-10T13:17:54;58.05;;;20.38;;
37955;SDS011;23776;51.592;7.180;2023-02-10T13:20:26;60.72;;;22.55;;
37955;SDS011;23776;51.592;7.180;2023-02-10T13:29:33;29.80;;;10.70;;
37955;SDS011;23776;51.592;7.180;2023-02-10T13:34:53;31.55;;;11.07;;
37955;SDS011;23776;51.592;7.180;2023-02-10T13:40:25;31.83;;;11.25;;
37955;SDS011;23776;51.592;7.180;2023-02-10T13:43:00;28.63;;;10.25;;
37955;SDS011;23776;51.592;7.180;2023-02-10T13:45:28;27.02;;;10.07;;
37955;SDS011;23776;51.592;7.180;2023-02-10T13:48:04;32.20;;;10.27;;
37955;SDS011;23776;51.592;7.180;2023-02-10T13:56:09;24.70;;;9.27;;
37955;SDS011;23776;51.592;7.180;2023-02-10T13:58:52;21.75;;;7.85;;
37955;SDS011;23776;51.592;7.180;2023-02-10T14:01:29;18.08;;;7.50;;
37955;SDS011;23776;51.592;7.180;2023-02-10T14:04:07;30.38;;;8.30;;
37955;SDS011;23776;51.592;7.180;2023-02-10T14:07:15;28.30;;;8.52;;
37955;SDS011;23776;51.592;7.180;2023-02-10T14:15:31;22.42;;;7.88;;
37955;SDS011;23776;51.592;7.180;2023-02-10T14:18:02;21.77;;;9.27;;
37955;SDS011;23776;51.592;7.180;2023-02-10T14:20:32;29.20;;;9.82;;
37955;SDS011;23776;51.592;7.180;2023-02-10T14:23:00;39.42;;;10.63;;
37955;SDS011;23776;51.592;7.180;2023-02-10T14:25:32;31.92;;;11.68;;
37955;SDS011;23776;51.592;7.180;2023-02-10T14:28:01;42.50;;;13.77;;
37955;SDS011;23776;51.592;7.180;2023-02-10T14:33:04;36.50;;;13.30;;
37955;SDS011;23776;51.592;7.180;2023-02-10T14:35:31;33.03;;;13.57;;
37955;SDS011;23776;51.592;7.180;2023-02-10T14:38:02;37.67;;;14.07;;
37955;SDS011;23776;51.592;7.180;2023-02-10T14:40:29;43.00;;;16.38;;
37955;SDS011;23776;51.592;7.180;2023-02-10T14:42:57;36.60;;;16.20;;
37955;SDS011;23776;51.592;7.180;2023-02-10T14:45:25;46.75;;;17.75;;
37955;SDS011;23776;51.592;7.180;2023-02-10T14:47:53;44.92;;;18.15;;
37955;SDS011;23776;51.592;7.180;2023-02-10T14:50:26;42.88;;;19.20;;
37955;SDS011;23776;51.592;7.180;2023-02-10T14:52:54;57.83;;;21.30;;
37955;SDS011;23776;51.592;7.180;2023-02-10T15:00:34;58.67;;;21.58;;
37955;SDS011;23776;51.592;7.180;2023-02-10T15:03:02;50.15;;;20.17;;
37955;SDS011;23776;51.592;7.180;2023-02-10T15:05:37;61.20;;;23.42;;
37955;SDS011;23776;51.592;7.180;2023-02-10T15:08:05;56.10;;;20.77;;
37955;SDS011;23776;51.592;7.180;2023-02-10T15:10:37;57.33;;;21.17;;
37955;SDS011;23776;51.592;7.180;2023-02-10T15:13:08;56.95;;;21.33;;
37955;SDS011;23776;51.592;7.180;2023-02-10T15:15:36;60.00;;;21.27;;
37955;SDS011;23776;51.592;7.180;2023-02-10T15:18:21;53.78;;;20.52;;
37955;SDS011;23776;51.592;7.180;2023-02-10T15:20:58;54.65;;;21.45;;
37955;SDS011;23776;51.592;7.180;2023-02-10T15:23:29;59.80;;;20.92;;
37955;SDS011;23776;51.592;7.180;2023-02-10T15:28:26;53.63;;;20.65;;
37955;SDS011;23776;51.592;7.180;2023-02-10T15:33:37;48.10;;;19.58;;
37955;SDS011;23776;51.592;7.180;2023-02-10T15:38:52;56.25;;;21.50;;
37955;SDS011;23776;51.592;7.180;2023-02-10T15:43:59;59.75;;;24.20;;
37955;SDS011;23776;51.592;7.180;2023-02-10T15:46:26;62.22;;;25.33;;
37955;SDS011;23776;51.592;7.180;2023-02-10T15:49:03;65.28;;;25.40;;
37955;SDS011;23776;51.592;7.180;2023-02-10T15:51:42;58.33;;;24.83;;
37955;SDS011;23776;51.592;7.180;2023-02-10T15:54:14;57.42;;;23.75;;
37955;SDS011;23776;51.592;7.180;2023-02-10T15:56:42;69.18;;;26.85;;
37955;SDS011;23776;51.592;7.180;2023-02-10T15:59:22;68.35;;;26.60;;
37955;SDS011;23776;51.592;7.180;2023-02-10T16:01:52;69.45;;;24.85;;
37955;SDS011;23776;51.592;7.180;2023-02-10T16:04:25;54.60;;;24.95;;
37955;SDS011;23776;51.592;7.180;2023-02-10T16:06:54;60.42;;;26.10;;
37955;SDS011;23776;51.592;7.180;2023-02-10T16:09:20;57.28;;;25.35;;
37955;SDS011;23776;51.592;7.180;2023-02-10T16:11:46;54.45;;;25.08;;
37955;SDS011;23776;51.592;7.180;2023-02-10T16:14:12;60.17;;;25.75;;
37955;SDS011;23776;51.592;7.180;2023-02-10T16:16:39;55.83;;;25.48;;
37955;SDS011;23776;51.592;7.180;2023-02-10T16:19:14;58.72;;;25.33;;
37955;SDS011;23776;51.592;7.180;2023-02-10T16:21:40;59.75;;;26.13;;
37955;SDS011;23776;51.592;7.180;2023-02-10T16:24:14;60.25;;;24.13;;
37955;SDS011;23776;51.592;7.180;2023-02-10T16:26:42;54.53;;;24.05;;
37955;SDS011;23776;51.592;7.180;2023-02-10T16:29:13;56.67;;;24.15;;
37955;SDS011;23776;51.592;7.180;2023-02-10T16:31:43;61.85;;;25.42;;
37955;SDS011;23776;51.592;7.180;2023-02-10T16:34:09;54.80;;;23.90;;
37955;SDS011;23776;51.592;7.180;2023-02-10T16:36:35;56.55;;;25.25;;
37955;SDS011;23776;51.592;7.180;2023-02-10T16:39:01;52.40;;;23.23;;
37955;SDS011;23776;51.592;7.180;2023-02-10T16:41:27;57.45;;;25.38;;
37955;SDS011;23776;51.592;7.180;2023-02-10T16:43:53;57.38;;;25.33;;
37955;SDS011;23776;51.592;7.180;2023-02-10T16:46:18;56.45;;;25.95;;
37955;SDS011;23776;51.592;7.180;2023-02-10T16:48:45;58.85;;;23.38;;
37955;SDS011;23776;51.592;7.180;2023-02-10T16:51:11;62.03;;;25.42;;
37955;SDS011;23776;51.592;7.180;2023-02-10T16:53:37;52.20;;;23.35;;
37955;SDS011;23776;51.592;7.180;2023-02-10T16:56:02;55.38;;;22.38;;
37955;SDS011;23776;51.592;7.180;2023-02-10T16:58:29;55.40;;;25.27;;
37955;SDS011;23776;51.592;7.180;2023-02-10T17:00:55;53.17;;;24.10;;
37955;SDS011;23776;51.592;7.180;2023-02-10T17:03:21;57.80;;;23.92;;